sensor_id;sensor_type;location;lat;lon;timestamp;pressure;altitude;pressure_sealevel;temperature;humidity
74637;BME280;63141;54.616;39.754;2022-10-29T00:02:32;100369.06;;;23.59;36.65
74637;BME280;63141;54.616;39.754;2022-10-29T00:05:34;100363.75;;;23.59;36.44
74637;BME280;63141;54.616;39.754;2022-10-29T00:08:37;100361.97;;;23.59;36.75
74637;BME280;63141;54.616;39.754;2022-10-29T00:11:39;100361.09;;;23.59;36.69
74637;BME280;63141;54.616;39.754;2022-10-29T00:14:40;100356.72;;;23.58;36.61
74637;BME280;63141;54.616;39.754;2022-10-29T00:17:41;100361.97;;;23.59;36.87
74637;BME280;63141;54.616;39.754;2022-10-29T00:20:43;100354.00;;;23.59;36.86
74637;BME280;63141;54.616;39.754;2022-10-29T00:23:44;100354.91;;;23.58;36.70
74637;BME280;63141;54.616;39.754;2022-10-29T00:26:46;100360.19;;;23.60;36.83
74637;BME280;63141;54.616;39.754;2022-10-29T00:29:47;100351.41;;;23.58;36.85
74637;BME280;63141;54.616;39.754;2022-10-29T00:32:49;100347.78;;;23.59;36.82
74637;BME280;63141;54.616;39.754;2022-10-29T00:36:01;100342.47;;;23.59;36.83
74637;BME280;63141;54.616;39.754;2022-10-29T00:39:03;100335.44;;;23.58;36.82
74637;BME280;63141;54.616;39.754;2022-10-29T00:42:04;100338.09;;;23.58;36.46
74637;BME280;63141;54.616;39.754;2022-10-29T00:45:15;100336.31;;;23.58;36.64
74637;BME280;63141;54.616;39.754;2022-10-29T00:48:18;100326.59;;;23.57;36.78
74637;BME280;63141;54.616;39.754;2022-10-29T00:51:21;100322.16;;;23.58;36.49
74637;BME280;63141;54.616;39.754;2022-10-29T00:54:23;100324.81;;;23.58;36.58
74637;BME280;63141;54.616;39.754;2022-10-29T00:57:28;100318.63;;;23.57;36.83
74637;BME280;63141;54.616;39.754;2022-10-29T01:00:31;100320.34;;;23.58;36.72
74637;BME280;63141;54.616;39.754;2022-10-29T01:03:33;100324.81;;;23.58;36.72
74637;BME280;63141;54.616;39.754;2022-10-29T01:06:34;100312.44;;;23.57;36.72
74637;BME280;63141;54.616;39.754;2022-10-29T01:09:35;100318.63;;;23.57;36.83
74637;BME280;63141;54.616;39.754;2022-10-29T01:13:01;100308.84;;;23.58;36.51
74637;BME280;63141;54.616;39.754;2022-10-29T01:16:13;100311.50;;;23.58;36.78
74637;BME280;63141;54.616;39.754;2022-10-29T01:23:10;100315.88;;;23.59;36.47
74637;BME280;63141;54.616;39.754;2022-10-29T01:26:40;100312.44;;;23.57;36.65
74637;BME280;63141;54.616;39.754;2022-10-29T01:30:09;100308.84;;;23.58;36.62
74637;BME280;63141;54.616;39.754;2022-10-29T01:33:39;100319.50;;;23.58;36.70
74637;BME280;63141;54.616;39.754;2022-10-29T01:43:26;100308.00;;;23.57;36.49
74637;BME280;63141;54.616;39.754;2022-10-29T01:46:44;100305.41;;;23.56;36.59
74637;BME280;63141;54.616;39.754;2022-10-29T01:49:50;100301.78;;;23.57;36.44
74637;BME280;63141;54.616;39.754;2022-10-29T01:52:53;100298.22;;;23.58;36.67
74637;BME280;63141;54.616;39.754;2022-10-29T01:55:55;100300.03;;;23.57;36.57
74637;BME280;63141;54.616;39.754;2022-10-29T01:58:58;100299.13;;;23.57;36.69
74637;BME280;63141;54.616;39.754;2022-10-29T02:02:13;100289.38;;;23.57;36.72
74637;BME280;63141;54.616;39.754;2022-10-29T02:09:34;100292.91;;;23.58;36.79
74637;BME280;63141;54.616;39.754;2022-10-29T02:12:40;100287.59;;;23.58;36.65
74637;BME280;63141;54.616;39.754;2022-10-29T02:15:48;100284.06;;;23.57;36.61
74637;BME280;63141;54.616;39.754;2022-10-29T02:18:51;100283.19;;;23.57;36.51
74637;BME280;63141;54.616;39.754;2022-10-29T02:21:53;100269.03;;;23.56;36.76
74637;BME280;63141;54.616;39.754;2022-10-29T02:24:54;100269.88;;;23.57;36.75
74637;BME280;63141;54.616;39.754;2022-10-29T02:27:55;100261.00;;;23.58;36.49
74637;BME280;63141;54.616;39.754;2022-10-29T02:30:57;100262.84;;;23.56;36.90
74637;BME280;63141;54.616;39.754;2022-10-29T02:33:58;100253.06;;;23.56;36.76
74637;BME280;63141;54.616;39.754;2022-10-29T02:37:00;100256.59;;;23.57;36.68
74637;BME280;63141;54.616;39.754;2022-10-29T02:40:02;100248.63;;;23.57;36.74
74637;BME280;63141;54.616;39.754;2022-10-29T02:43:03;100257.47;;;23.57;36.75
74637;BME280;63141;54.616;39.754;2022-10-29T02:46:19;100260.06;;;23.59;36.67
74637;BME280;63141;54.616;39.754;2022-10-29T02:49:21;100265.38;;;23.59;36.68
74637;BME280;63141;54.616;39.754;2022-10-29T02:52:22;100258.34;;;23.58;36.49
74637;BME280;63141;54.616;39.754;2022-10-29T02:55:23;100258.28;;;23.59;36.68
74637;BME280;63141;54.616;39.754;2022-10-29T02:58:25;100257.41;;;23.59;36.58
74637;BME280;63141;54.616;39.754;2022-10-29T03:01:26;100246.75;;;23.59;36.74
74637;BME280;63141;54.616;39.754;2022-10-29T03:04:27;100247.66;;;23.59;36.67
74637;BME280;63141;54.616;39.754;2022-10-29T03:07:29;100242.34;;;23.59;36.70
74637;BME280;63141;54.616;39.754;2022-10-29T03:10:30;100243.19;;;23.60;36.58
74637;BME280;63141;54.616;39.754;2022-10-29T03:13:31;100237.88;;;23.60;36.60
74637;BME280;63141;54.616;39.754;2022-10-29T03:16:33;100233.41;;;23.60;36.68
74637;BME280;63141;54.616;39.754;2022-10-29T03:19:34;100232.56;;;23.60;36.78
74637;BME280;63141;54.616;39.754;2022-10-29T03:22:35;100223.63;;;23.61;36.71
74637;BME280;63141;54.616;39.754;2022-10-29T03:25:37;100224.56;;;23.60;36.70
74637;BME280;63141;54.616;39.754;2022-10-29T03:28:39;100221.91;;;23.60;36.55
74637;BME280;63141;54.616;39.754;2022-10-29T03:31:40;100218.31;;;23.61;36.87
74637;BME280;63141;54.616;39.754;2022-10-29T03:34:41;100218.41;;;23.59;37.03
74637;BME280;63141;54.616;39.754;2022-10-29T03:37:43;100216.72;;;23.57;37.12
74637;BME280;63141;54.616;39.754;2022-10-29T03:40:44;100208.81;;;23.55;37.03
74637;BME280;63141;54.616;39.754;2022-10-29T03:43:45;100207.97;;;23.55;37.16
74637;BME280;63141;54.616;39.754;2022-10-29T03:46:47;100202.66;;;23.55;37.14
74637;BME280;63141;54.616;39.754;2022-10-29T03:49:48;100198.25;;;23.54;37.05
74637;BME280;63141;54.616;39.754;2022-10-29T03:52:49;100197.47;;;23.52;37.15
74637;BME280;63141;54.616;39.754;2022-10-29T03:55:52;100208.09;;;23.52;36.87
74637;BME280;63141;54.616;39.754;2022-10-29T03:58:53;100198.41;;;23.51;37.12
74637;BME280;63141;54.616;39.754;2022-10-29T04:01:54;100195.75;;;23.51;37.11
74637;BME280;63141;54.616;39.754;2022-10-29T04:04:55;100195.75;;;23.51;37.27
74637;BME280;63141;54.616;39.754;2022-10-29T04:07:57;100196.59;;;23.51;37.07
74637;BME280;63141;54.616;39.754;2022-10-29T04:10:58;100198.41;;;23.51;37.29
74637;BME280;63141;54.616;39.754;2022-10-29T04:14:00;100194.00;;;23.50;36.86
74637;BME280;63141;54.616;39.754;2022-10-29T04:17:01;100193.19;;;23.48;37.17
74637;BME280;63141;54.616;39.754;2022-10-29T04:20:02;100196.75;;;23.48;37.27
74637;BME280;63141;54.616;39.754;2022-10-29T04:23:04;100188.78;;;23.48;37.13
74637;BME280;63141;54.616;39.754;2022-10-29T04:26:06;100193.19;;;23.48;37.23
74637;BME280;63141;54.616;39.754;2022-10-29T04:29:07;100189.69;;;23.47;37.15
74637;BME280;63141;54.616;39.754;2022-10-29T04:32:09;100187.97;;;23.46;37.07
74637;BME280;63141;54.616;39.754;2022-10-29T04:35:10;100187.97;;;23.46;37.08
74637;BME280;63141;54.616;39.754;2022-10-29T04:38:11;100175.59;;;23.45;37.24
74637;BME280;63141;54.616;39.754;2022-10-29T04:41:13;100187.97;;;23.46;37.44
74637;BME280;63141;54.616;39.754;2022-10-29T04:44:14;100179.16;;;23.46;37.09
74637;BME280;63141;54.616;39.754;2022-10-29T04:47:15;100175.59;;;23.45;37.10
74637;BME280;63141;54.616;39.754;2022-10-29T04:50:17;100164.97;;;23.45;37.21
74637;BME280;63141;54.616;39.754;2022-10-29T04:53:18;100163.19;;;23.46;37.11
74637;BME280;63141;54.616;39.754;2022-10-29T04:56:20;100162.31;;;23.45;37.14
74637;BME280;63141;54.616;39.754;2022-10-29T04:59:21;100157.00;;;23.45;37.23
74637;BME280;63141;54.616;39.754;2022-10-29T05:02:22;100164.97;;;23.45;37.13
74637;BME280;63141;54.616;39.754;2022-10-29T05:05:24;100157.09;;;23.44;37.09
74637;BME280;63141;54.616;39.754;2022-10-29T05:08:25;100154.44;;;23.44;37.07
74637;BME280;63141;54.616;39.754;2022-10-29T05:11:27;100142.84;;;23.45;37.27
74637;BME280;63141;54.616;39.754;2022-10-29T05:14:28;100148.16;;;23.45;37.25
74637;BME280;63141;54.616;39.754;2022-10-29T05:17:30;100136.69;;;23.44;37.24
74637;BME280;63141;54.616;39.754;2022-10-29T05:20:32;100126.91;;;23.45;37.34
74637;BME280;63141;54.616;39.754;2022-10-29T05:23:33;100134.03;;;23.44;37.37
74637;BME280;63141;54.616;39.754;2022-10-29T05:26:35;100126.03;;;23.44;37.25
74637;BME280;63141;54.616;39.754;2022-10-29T05:29:36;100126.91;;;23.45;37.30
74637;BME280;63141;54.616;39.754;2022-10-29T05:32:37;100126.91;;;23.45;37.43
74637;BME280;63141;54.616;39.754;2022-10-29T05:35:38;100125.09;;;23.45;37.57
74637;BME280;63141;54.616;39.754;2022-10-29T05:38:40;100115.41;;;23.44;37.44
74637;BME280;63141;54.616;39.754;2022-10-29T05:41:41;100122.38;;;23.47;37.57
74637;BME280;63141;54.616;39.754;2022-10-29T05:44:43;100123.31;;;23.46;37.85
74637;BME280;63141;54.616;39.754;2022-10-29T05:47:44;100112.75;;;23.44;37.70
74637;BME280;63141;54.616;39.754;2022-10-29T05:50:45;100110.94;;;23.45;37.77
74637;BME280;63141;54.616;39.754;2022-10-29T05:53:47;100109.16;;;23.45;37.84
74637;BME280;63141;54.616;39.754;2022-10-29T05:56:48;100105.63;;;23.45;38.07
74637;BME280;63141;54.616;39.754;2022-10-29T05:59:50;100098.59;;;23.44;38.12
74637;BME280;63141;54.616;39.754;2022-10-29T06:02:51;100093.28;;;23.44;38.05
74637;BME280;63141;54.616;39.754;2022-10-29T06:05:53;100092.34;;;23.45;38.22
74637;BME280;63141;54.616;39.754;2022-10-29T06:08:54;100097.66;;;23.45;38.32
74637;BME280;63141;54.616;39.754;2022-10-29T06:11:55;100095.00;;;23.45;38.48
74637;BME280;63141;54.616;39.754;2022-10-29T06:14:57;100103.94;;;23.44;38.45
74637;BME280;63141;54.616;39.754;2022-10-29T06:17:58;100102.97;;;23.45;38.36
74637;BME280;63141;54.616;39.754;2022-10-29T06:20:59;100095.00;;;23.45;38.37
74637;BME280;63141;54.616;39.754;2022-10-29T06:24:01;100095.00;;;23.45;38.35
74637;BME280;63141;54.616;39.754;2022-10-29T06:27:03;100095.00;;;23.45;38.56
74637;BME280;63141;54.616;39.754;2022-10-29T06:30:05;100089.69;;;23.45;38.34
74637;BME280;63141;54.616;39.754;2022-10-29T06:33:06;100087.88;;;23.45;38.42
74637;BME280;63141;54.616;39.754;2022-10-29T06:36:08;100089.69;;;23.45;38.51
74637;BME280;63141;54.616;39.754;2022-10-29T06:39:09;100084.38;;;23.45;38.58
74637;BME280;63141;54.616;39.754;2022-10-29T06:42:10;100090.53;;;23.45;38.43
74637;BME280;63141;54.616;39.754;2022-10-29T06:45:12;100084.38;;;23.45;38.50
74637;BME280;63141;54.616;39.754;2022-10-29T06:48:13;100075.47;;;23.46;38.48
74637;BME280;63141;54.616;39.754;2022-10-29T06:51:15;100076.41;;;23.45;38.42
74637;BME280;63141;54.616;39.754;2022-10-29T06:54:16;100071.09;;;23.45;38.62
74637;BME280;63141;54.616;39.754;2022-10-29T06:57:17;100073.75;;;23.45;38.75
74637;BME280;63141;54.616;39.754;2022-10-29T07:00:18;100072.88;;;23.44;38.65
74637;BME280;63141;54.616;39.754;2022-10-29T07:03:20;100073.75;;;23.45;38.46
74637;BME280;63141;54.616;39.754;2022-10-29T07:06:23;100064.84;;;23.46;38.64
74637;BME280;63141;54.616;39.754;2022-10-29T07:09:24;100067.50;;;23.46;38.67
74637;BME280;63141;54.616;39.754;2022-10-29T07:12:25;100069.28;;;23.45;38.76
74637;BME280;63141;54.616;39.754;2022-10-29T07:15:27;100069.28;;;23.45;38.81
74637;BME280;63141;54.616;39.754;2022-10-29T07:18:29;100058.66;;;23.45;38.58
74637;BME280;63141;54.616;39.754;2022-10-29T07:21:32;100063.97;;;23.45;38.76
74637;BME280;63141;54.616;39.754;2022-10-29T07:24:33;100050.75;;;23.44;38.72
74637;BME280;63141;54.616;39.754;2022-10-29T07:27:35;100054.34;;;23.42;38.70
74637;BME280;63141;54.616;39.754;2022-10-29T07:30:36;100040.13;;;23.44;38.51
74637;BME280;63141;54.616;39.754;2022-10-29T07:33:37;100049.88;;;23.43;38.55
74637;BME280;63141;54.616;39.754;2022-10-29T07:36:39;100039.19;;;23.45;38.43
74637;BME280;63141;54.616;39.754;2022-10-29T07:39:40;100039.19;;;23.45;38.81
74637;BME280;63141;54.616;39.754;2022-10-29T07:42:42;100032.06;;;23.45;38.83
74637;BME280;63141;54.616;39.754;2022-10-29T07:45:44;100038.28;;;23.46;38.89
74637;BME280;63141;54.616;39.754;2022-10-29T07:48:46;100038.19;;;23.47;38.64
74637;BME280;63141;54.616;39.754;2022-10-29T07:51:47;100038.13;;;23.49;38.79
74637;BME280;63141;54.616;39.754;2022-10-29T07:54:49;100034.50;;;23.50;38.45
74637;BME280;63141;54.616;39.754;2022-10-29T07:58:02;100032.72;;;23.50;38.49
74637;BME280;63141;54.616;39.754;2022-10-29T08:01:04;100030.94;;;23.51;38.51
74637;BME280;63141;54.616;39.754;2022-10-29T08:04:05;100016.69;;;23.52;38.45
74637;BME280;63141;54.616;39.754;2022-10-29T08:07:07;100013.19;;;23.51;38.56
74637;BME280;63141;54.616;39.754;2022-10-29T08:10:08;100013.13;;;23.53;38.38
74637;BME280;63141;54.616;39.754;2022-10-29T08:13:09;100007.81;;;23.53;38.57
74637;BME280;63141;54.616;39.754;2022-10-29T08:16:11;100004.19;;;23.54;38.41
74637;BME280;63141;54.616;39.754;2022-10-29T08:19:12;100005.03;;;23.54;38.51
74637;BME280;63141;54.616;39.754;2022-10-29T08:22:14;99997.97;;;23.55;38.43
74637;BME280;63141;54.616;39.754;2022-10-29T08:25:16;99989.97;;;23.55;38.36
74637;BME280;63141;54.616;39.754;2022-10-29T08:28:19;99982.00;;;23.55;38.38
74637;BME280;63141;54.616;39.754;2022-10-29T08:31:20;99989.97;;;23.55;38.29
74637;BME280;63141;54.616;39.754;2022-10-29T08:34:21;99987.22;;;23.56;38.28
74637;BME280;63141;54.616;39.754;2022-10-29T08:37:23;99970.44;;;23.56;38.23
74637;BME280;63141;54.616;39.754;2022-10-29T08:40:48;99973.94;;;23.56;38.22
74637;BME280;63141;54.616;39.754;2022-10-29T08:47:17;99958.00;;;23.56;38.17
74637;BME280;63141;54.616;39.754;2022-10-29T08:50:29;99953.53;;;23.57;38.02
74637;BME280;63141;54.616;39.754;2022-10-29T08:53:39;99942.81;;;23.58;38.05
74637;BME280;63141;54.616;39.754;2022-10-29T08:56:49;99948.13;;;23.58;38.22
74637;BME280;63141;54.616;39.754;2022-10-29T09:03:11;99926.88;;;23.58;37.96
74637;BME280;63141;54.616;39.754;2022-10-29T09:06:34;99932.19;;;23.58;37.94
74637;BME280;63141;54.616;39.754;2022-10-29T09:09:43;99924.28;;;23.57;38.03
74637;BME280;63141;54.616;39.754;2022-10-29T09:16:23;99914.38;;;23.60;40.45
74637;BME280;63141;54.616;39.754;2022-10-29T09:33:13;99893.81;;;23.64;42.41
74637;BME280;63141;54.616;39.754;2022-10-29T09:36:20;99886.75;;;23.63;42.70
74637;BME280;63141;54.616;39.754;2022-10-29T09:39:42;99885.75;;;23.66;42.58
74637;BME280;63141;54.616;39.754;2022-10-29T09:42:46;99879.56;;;23.65;42.82
74637;BME280;63141;54.616;39.754;2022-10-29T09:52:43;99860.91;;;23.67;43.49
74637;BME280;63141;54.616;39.754;2022-10-29T09:55:47;99864.41;;;23.67;43.28
74637;BME280;63141;54.616;39.754;2022-10-29T09:59:03;99856.44;;;23.67;43.41
74637;BME280;63141;54.616;39.754;2022-10-29T10:02:42;99858.25;;;23.67;43.57
74637;BME280;63141;54.616;39.754;2022-10-29T10:06:01;99859.09;;;23.67;43.50
74637;BME280;63141;54.616;39.754;2022-10-29T10:09:04;99848.47;;;23.67;43.24
74637;BME280;63141;54.616;39.754;2022-10-29T10:12:06;99849.38;;;23.66;43.37
74637;BME280;63141;54.616;39.754;2022-10-29T10:15:29;99844.06;;;23.66;42.97
74637;BME280;63141;54.616;39.754;2022-10-29T10:21:32;99836.19;;;23.65;42.90
74637;BME280;63141;54.616;39.754;2022-10-29T10:24:35;99828.28;;;23.63;42.79
74637;BME280;63141;54.616;39.754;2022-10-29T10:27:37;99822.91;;;23.65;42.62
74637;BME280;63141;54.616;39.754;2022-10-29T10:30:39;99825.56;;;23.65;42.88
74637;BME280;63141;54.616;39.754;2022-10-29T10:33:49;99817.66;;;23.63;42.77
74637;BME280;63141;54.616;39.754;2022-10-29T10:36:53;99822.03;;;23.64;42.50
74637;BME280;63141;54.616;39.754;2022-10-29T10:39:58;99807.84;;;23.63;42.53
74637;BME280;63141;54.616;39.754;2022-10-29T10:43:02;99811.47;;;23.62;42.45
74637;BME280;63141;54.616;39.754;2022-10-29T10:46:11;99805.31;;;23.62;42.42
74637;BME280;63141;54.616;39.754;2022-10-29T10:49:16;99810.63;;;23.62;42.27
74637;BME280;63141;54.616;39.754;2022-10-29T10:52:25;99799.97;;;23.62;42.18
74637;BME280;63141;54.616;39.754;2022-10-29T10:55:32;99794.66;;;23.62;42.24
74637;BME280;63141;54.616;39.754;2022-10-29T10:58:39;99789.34;;;23.62;42.19
74637;BME280;63141;54.616;39.754;2022-10-29T11:01:46;99780.41;;;23.63;42.00
74637;BME280;63141;54.616;39.754;2022-10-29T11:04:59;99767.06;;;23.65;41.83
74637;BME280;63141;54.616;39.754;2022-10-29T11:08:25;99766.03;;;23.67;41.96
74637;BME280;63141;54.616;39.754;2022-10-29T11:11:29;99765.09;;;23.68;41.93
74637;BME280;63141;54.616;39.754;2022-10-29T11:14:34;99748.34;;;23.66;41.93
74637;BME280;63141;54.616;39.754;2022-10-29T11:20:56;99743.03;;;23.66;41.83
74637;BME280;63141;54.616;39.754;2022-10-29T11:27:19;99720.91;;;23.66;41.71
74637;BME280;63141;54.616;39.754;2022-10-29T11:30:25;99716.44;;;23.66;41.97
74637;BME280;63141;54.616;39.754;2022-10-29T11:34:01;99711.13;;;23.66;41.59
74637;BME280;63141;54.616;39.754;2022-10-29T11:37:11;99701.44;;;23.65;41.68
74637;BME280;63141;54.616;39.754;2022-10-29T11:43:46;99699.63;;;23.66;41.63
74637;BME280;63141;54.616;39.754;2022-10-29T11:57:19;99680.19;;;23.65;41.22
74637;BME280;63141;54.616;39.754;2022-10-29T12:00:23;99668.69;;;23.65;41.08
74637;BME280;63141;54.616;39.754;2022-10-29T12:06:42;99664.22;;;23.65;40.92
74637;BME280;63141;54.616;39.754;2022-10-29T12:16:35;99650.94;;;23.65;40.84
74637;BME280;63141;54.616;39.754;2022-10-29T12:23:50;99647.31;;;23.66;40.61
74637;BME280;63141;54.616;39.754;2022-10-29T12:33:19;99634.13;;;23.65;40.70
74637;BME280;63141;54.616;39.754;2022-10-29T12:43:05;99624.34;;;23.65;40.23
74637;BME280;63141;54.616;39.754;2022-10-29T12:46:18;99616.44;;;23.63;40.41
74637;BME280;63141;54.616;39.754;2022-10-29T12:56:12;99605.81;;;23.63;40.13
74637;BME280;63141;54.616;39.754;2022-10-29T13:02:40;99599.56;;;23.65;40.02
74637;BME280;63141;54.616;39.754;2022-10-29T13:05:47;99593.41;;;23.64;40.01
74637;BME280;63141;54.616;39.754;2022-10-29T13:08:55;99592.44;;;23.65;40.16
74637;BME280;63141;54.616;39.754;2022-10-29T13:12:04;99583.69;;;23.63;40.28
74637;BME280;63141;54.616;39.754;2022-10-29T13:15:10;99583.63;;;23.65;39.97
74637;BME280;63141;54.616;39.754;2022-10-29T13:21:57;99568.53;;;23.65;39.86
74637;BME280;63141;54.616;39.754;2022-10-29T13:28:45;99567.75;;;23.63;39.94
74637;BME280;63141;54.616;39.754;2022-10-29T13:31:48;99558.84;;;23.64;39.65
74637;BME280;63141;54.616;39.754;2022-10-29T13:34:56;99559.69;;;23.65;39.99
74637;BME280;63141;54.616;39.754;2022-10-29T13:41:20;99551.72;;;23.65;39.60
74637;BME280;63141;54.616;39.754;2022-10-29T13:44:24;99538.44;;;23.65;39.58
74637;BME280;63141;54.616;39.754;2022-10-29T13:47:27;99544.59;;;23.65;39.52
74637;BME280;63141;54.616;39.754;2022-10-29T13:50:28;99539.28;;;23.65;39.61
74637;BME280;63141;54.616;39.754;2022-10-29T13:53:38;99534.81;;;23.66;39.63
74637;BME280;63141;54.616;39.754;2022-10-29T13:56:58;99524.19;;;23.66;39.40
74637;BME280;63141;54.616;39.754;2022-10-29T14:00:12;99525.03;;;23.66;39.34
74637;BME280;63141;54.616;39.754;2022-10-29T14:03:32;99519.72;;;23.66;39.66
74637;BME280;63141;54.616;39.754;2022-10-29T14:06:38;99518.00;;;23.65;39.63
74637;BME280;63141;54.616;39.754;2022-10-29T14:09:44;99511.84;;;23.65;39.22
74637;BME280;63141;54.616;39.754;2022-10-29T14:12:48;99509.06;;;23.66;39.55
74637;BME280;63141;54.616;39.754;2022-10-29T14:16:23;99499.31;;;23.67;39.41
74637;BME280;63141;54.616;39.754;2022-10-29T14:19:27;99507.38;;;23.65;39.53
74637;BME280;63141;54.616;39.754;2022-10-29T14:22:38;99487.81;;;23.66;39.19
74637;BME280;63141;54.616;39.754;2022-10-29T14:25:40;99495.88;;;23.65;39.35
74637;BME280;63141;54.616;39.754;2022-10-29T14:28:42;99491.41;;;23.65;39.36
74637;BME280;63141;54.616;39.754;2022-10-29T14:31:44;99492.28;;;23.66;39.38
74637;BME280;63141;54.616;39.754;2022-10-29T14:34:49;99483.44;;;23.65;39.42
74637;BME280;63141;54.616;39.754;2022-10-29T14:37:51;99479.94;;;23.65;39.17
74637;BME280;63141;54.616;39.754;2022-10-29T14:40:56;99472.81;;;23.65;39.43
74637;BME280;63141;54.616;39.754;2022-10-29T14:44:13;99461.22;;;23.66;39.32
74637;BME280;63141;54.616;39.754;2022-10-29T14:47:23;99454.19;;;23.65;39.11
74637;BME280;63141;54.616;39.754;2022-10-29T14:50:27;99448.88;;;23.65;39.22
74637;BME280;63141;54.616;39.754;2022-10-29T14:53:31;99440.91;;;23.65;39.15
74637;BME280;63141;54.616;39.754;2022-10-29T14:56:37;99439.94;;;23.66;38.99
74637;BME280;63141;54.616;39.754;2022-10-29T14:59:50;99427.63;;;23.65;39.27
74637;BME280;63141;54.616;39.754;2022-10-29T15:02:53;99428.47;;;23.66;39.12
74637;BME280;63141;54.616;39.754;2022-10-29T15:06:27;99429.31;;;23.66;39.14
74637;BME280;63141;54.616;39.754;2022-10-29T15:09:30;99417.84;;;23.66;39.07
74637;BME280;63141;54.616;39.754;2022-10-29T15:12:34;99411.59;;;23.67;38.91
74637;BME280;63141;54.616;39.754;2022-10-29T15:15:36;99408.06;;;23.66;38.85
74637;BME280;63141;54.616;39.754;2022-10-29T15:18:37;99398.38;;;23.65;38.95
74637;BME280;63141;54.616;39.754;2022-10-29T15:21:39;99396.56;;;23.66;38.87
74637;BME280;63141;54.616;39.754;2022-10-29T15:24:46;99396.50;;;23.67;38.80
74637;BME280;63141;54.616;39.754;2022-10-29T15:27:50;99391.25;;;23.66;38.82
74637;BME280;63141;54.616;39.754;2022-10-29T15:30:52;99385.09;;;23.65;39.08
74637;BME280;63141;54.616;39.754;2022-10-29T15:33:54;99380.63;;;23.66;38.80
74637;BME280;63141;54.616;39.754;2022-10-29T15:40:21;99370.84;;;23.66;38.94
74637;BME280;63141;54.616;39.754;2022-10-29T15:43:27;99370.84;;;23.66;38.96
74637;BME280;63141;54.616;39.754;2022-10-29T15:46:43;99363.75;;;23.67;38.85
74637;BME280;63141;54.616;39.754;2022-10-29T15:49:49;99361.94;;;23.67;38.81
74637;BME280;63141;54.616;39.754;2022-10-29T15:52:52;99360.19;;;23.66;38.79
74637;BME280;63141;54.616;39.754;2022-10-29T15:55:54;99351.38;;;23.66;38.69
74637;BME280;63141;54.616;39.754;2022-10-29T15:58:58;99354.03;;;23.66;38.62
74637;BME280;63141;54.616;39.754;2022-10-29T16:02:00;99344.25;;;23.66;38.79
74637;BME280;63141;54.616;39.754;2022-10-29T16:05:11;99349.56;;;23.66;38.74
74637;BME280;63141;54.616;39.754;2022-10-29T16:08:44;99335.34;;;23.67;38.80
74637;BME280;63141;54.616;39.754;2022-10-29T16:11:48;99331.84;;;23.67;38.82
74637;BME280;63141;54.616;39.754;2022-10-29T16:14:50;99328.22;;;23.68;38.54
74637;BME280;63141;54.616;39.754;2022-10-29T16:17:52;99324.72;;;23.67;38.68
74637;BME280;63141;54.616;39.754;2022-10-29T16:20:59;99319.41;;;23.67;38.70
74637;BME280;63141;54.616;39.754;2022-10-29T16:24:02;99314.06;;;23.67;38.53
74637;BME280;63141;54.616;39.754;2022-10-29T16:27:12;99315.78;;;23.68;38.64
74637;BME280;63141;54.616;39.754;2022-10-29T16:30:14;99307.81;;;23.68;38.65
74637;BME280;63141;54.616;39.754;2022-10-29T16:33:16;99298.13;;;23.67;38.55
74637;BME280;63141;54.616;39.754;2022-10-29T16:36:19;99301.63;;;23.68;38.58
74637;BME280;63141;54.616;39.754;2022-10-29T16:39:20;99297.16;;;23.68;38.45
74637;BME280;63141;54.616;39.754;2022-10-29T16:42:32;99289.19;;;23.68;38.74
74637;BME280;63141;54.616;39.754;2022-10-29T16:45:34;99283.88;;;23.68;38.48
74637;BME280;63141;54.616;39.754;2022-10-29T16:48:36;99275.03;;;23.68;38.54
74637;BME280;63141;54.616;39.754;2022-10-29T16:51:38;99268.81;;;23.69;38.58
74637;BME280;63141;54.616;39.754;2022-10-29T16:54:39;99266.22;;;23.67;38.45
74637;BME280;63141;54.616;39.754;2022-10-29T16:57:41;99250.28;;;23.67;38.53
74637;BME280;63141;54.616;39.754;2022-10-29T17:00:43;99246.66;;;23.68;38.40
74637;BME280;63141;54.616;39.754;2022-10-29T17:03:51;99246.66;;;23.68;38.38
74637;BME280;63141;54.616;39.754;2022-10-29T17:06:52;99240.50;;;23.68;38.57
74637;BME280;63141;54.616;39.754;2022-10-29T17:09:54;99241.34;;;23.68;38.57
74637;BME280;63141;54.616;39.754;2022-10-29T17:12:56;99231.59;;;23.69;38.54
74637;BME280;63141;54.616;39.754;2022-10-29T17:15:58;99226.25;;;23.69;38.52
74637;BME280;63141;54.616;39.754;2022-10-29T17:18:59;99224.47;;;23.69;38.31
74637;BME280;63141;54.616;39.754;2022-10-29T17:22:01;99211.16;;;23.69;38.46
74637;BME280;63141;54.616;39.754;2022-10-29T17:25:04;99211.16;;;23.69;38.52
74637;BME280;63141;54.616;39.754;2022-10-29T17:28:06;99201.47;;;23.68;38.38
74637;BME280;63141;54.616;39.754;2022-10-29T17:31:08;99197.88;;;23.69;38.58
74637;BME280;63141;54.616;39.754;2022-10-29T17:34:11;99197.03;;;23.69;38.46
74637;BME280;63141;54.616;39.754;2022-10-29T17:37:13;99176.59;;;23.69;38.32
74637;BME280;63141;54.616;39.754;2022-10-29T17:40:15;99173.94;;;23.69;38.43
74637;BME280;63141;54.616;39.754;2022-10-29T17:43:16;99173.94;;;23.69;38.23
74637;BME280;63141;54.616;39.754;2022-10-29T17:46:17;99171.28;;;23.69;38.39
74637;BME280;63141;54.616;39.754;2022-10-29T17:49:19;99162.47;;;23.69;38.45
74637;BME280;63141;54.616;39.754;2022-10-29T17:52:21;99159.81;;;23.69;38.59
74637;BME280;63141;54.616;39.754;2022-10-29T17:55:23;99149.06;;;23.70;38.37
74637;BME280;63141;54.616;39.754;2022-10-29T17:58:26;99142.03;;;23.69;38.32
74637;BME280;63141;54.616;39.754;2022-10-29T18:01:27;99137.56;;;23.70;38.33